Time;durP1;ratioP1;P1;durP2;ratioP2;P2;SDS_P1;SDS_P2;PMS_P1;PMS_P2;Temp;Humidity;BMP_temperature;BMP_pressure;BME280_temperature;BME280_humidity;BME280_pressure;Samples;Min_cycle;Max_cycle;Signal;HPM_P1;HPM_P2
2024/03/15 00:01:54;;;;;;;12.02;2.13;;;;;;;;;;6249043;22;20003;-95
2024/03/15 00:04:19;;;;;;;14.02;2.58;;;;;;;;;;6249240;22;20049;-96
2024/03/15 00:06:44;;;;;;;12.35;2.28;;;;;;;;;;6249437;22;20071;-96
2024/03/15 00:09:09;;;;;;;10.45;2.05;;;;;;;;;;6249420;22;20044;-95
2024/03/15 00:11:35;;;;;;;14.60;2.25;;;;;;;;;;6249573;22;19991;-95
2024/03/15 00:14:00;;;;;;;15.52;2.15;;;;;;;;;;6249466;22;19996;-96
2024/03/15 00:16:25;;;;;;;14.23;2.50;;;;;;;;;;6249662;22;20004;-96
2024/03/15 00:18:51;;;;;;;17.25;3.00;;;;;;;;;;6251252;22;19995;-96
2024/03/15 00:21:17;;;;;;;16.95;2.50;;;;;;;;;;6251650;22;20007;-95
2024/03/15 00:23:42;;;;;;;20.55;3.83;;;;;;;;;;6251698;22;20049;-96
2024/03/15 00:26:08;;;;;;;17.70;3.30;;;;;;;;;;6251666;22;20004;-96
2024/03/15 00:28:35;;;;;;;11.70;2.42;;;;;;;;;;6251341;22;19995;-96
2024/03/15 00:31:00;;;;;;;13.20;1.88;;;;;;;;;;6252145;22;20004;-95
2024/03/15 00:33:26;;;;;;;17.10;3.42;;;;;;;;;;6251548;22;20418;-96
2024/03/15 00:35:51;;;;;;;13.65;3.10;;;;;;;;;;6251293;22;20008;-96
2024/03/15 00:38:18;;;;;;;17.98;3.13;;;;;;;;;;6251591;22;19992;-96
2024/03/15 00:40:43;;;;;;;16.27;3.15;;;;;;;;;;6252101;22;19996;-96
2024/03/15 00:43:08;;;;;;;15.43;3.10;;;;;;;;;;6252236;22;20006;-95
2024/03/15 00:45:34;;;;;;;18.17;2.40;;;;;;;;;;6251603;22;20003;-96
2024/03/15 00:48:01;;;;;;;21.45;3.75;;;;;;;;;;6251547;22;20000;-96
2024/03/15 00:50:27;;;;;;;24.95;5.15;;;;;;;;;;6252691;22;19988;-95
2024/03/15 00:52:57;;;;;;;8.10;1.80;;;;;;;;;;6252622;22;20066;-95
2024/03/15 00:55:22;;;;;;;10.25;1.80;;;;;;;;;;6252517;22;20034;-95
2024/03/15 00:57:47;;;;;;;12.88;1.98;;;;;;;;;;6253701;22;19996;-96
2024/03/15 01:00:13;;;;;;;15.20;2.50;;;;;;;;;;6252583;22;20060;-95
2024/03/15 01:02:38;;;;;;;16.88;2.42;;;;;;;;;;6251992;22;20078;-95
2024/03/15 01:05:05;;;;;;;10.45;1.67;;;;;;;;;;6252877;22;20082;-95
2024/03/15 01:07:30;;;;;;;15.20;2.35;;;;;;;;;;6252081;22;19991;-95
2024/03/15 01:09:56;;;;;;;15.98;3.25;;;;;;;;;;6252197;22;20330;-95
2024/03/15 01:12:21;;;;;;;19.40;2.97;;;;;;;;;;6251562;22;20083;-95
2024/03/15 01:14:46;;;;;;;13.25;2.45;;;;;;;;;;6251850;22;20073;-95
2024/03/15 01:17:11;;;;;;;20.25;3.33;;;;;;;;;;6251549;22;20392;-95
2024/03/15 01:19:37;;;;;;;16.33;2.22;;;;;;;;;;6252038;22;19996;-95
2024/03/15 01:22:02;;;;;;;15.30;2.67;;;;;;;;;;6252330;22;20377;-95
2024/03/15 01:24:28;;;;;;;17.35;2.50;;;;;;;;;;6251710;22;20380;-95
2024/03/15 01:26:56;;;;;;;25.52;4.10;;;;;;;;;;6251278;22;20042;-95
2024/03/15 01:29:22;;;;;;;13.73;2.50;;;;;;;;;;6251703;22;20000;-96
2024/03/15 01:31:48;;;;;;;24.63;3.97;;;;;;;;;;6251672;22;20078;-95
2024/03/15 01:34:13;;;;;;;23.67;3.45;;;;;;;;;;6251479;22;19999;-96
2024/03/15 01:36:38;;;;;;;13.27;1.85;;;;;;;;;;6251329;22;20053;-96
2024/03/15 01:39:05;;;;;;;11.93;2.08;;;;;;;;;;6251135;22;19999;-96
2024/03/15 01:41:30;;;;;;;16.30;3.00;;;;;;;;;;6251093;22;20053;-96
2024/03/15 01:43:55;;;;;;;12.50;2.17;;;;;;;;;;6251455;22;20035;-95
2024/03/15 01:46:21;;;;;;;15.95;2.80;;;;;;;;;;6256773;22;19996;-96
2024/03/15 01:48:47;;;;;;;13.43;2.15;;;;;;;;;;6250392;22;19995;-94
2024/03/15 01:51:12;;;;;;;13.57;2.63;;;;;;;;;;6249327;22;19999;-95
2024/03/15 01:53:38;;;;;;;23.10;2.90;;;;;;;;;;6250470;22;20373;-95
2024/03/15 01:56:04;;;;;;;17.08;2.15;;;;;;;;;;6250489;22;20564;-95
2024/03/15 01:58:30;;;;;;;22.70;3.38;;;;;;;;;;6250767;22;19995;-95
2024/03/15 02:00:56;;;;;;;26.77;3.97;;;;;;;;;;6278201;22;20000;-96
2024/03/15 02:03:22;;;;;;;27.23;2.88;;;;;;;;;;6250579;22;20000;-96
2024/03/15 02:05:47;;;;;;;19.85;2.67;;;;;;;;;;6250464;22;20496;-96
2024/03/15 02:08:17;;;;;;;29.52;3.80;;;;;;;;;;6250580;22;19996;-96
2024/03/15 02:10:42;;;;;;;24.48;4.03;;;;;;;;;;6250591;22;20491;-96
2024/03/15 02:13:08;;;;;;;21.35;2.67;;;;;;;;;;6251114;22;20026;-96
2024/03/15 02:15:34;;;;;;;24.00;3.33;;;;;;;;;;6250510;22;20096;-96
2024/03/15 02:17:59;;;;;;;17.02;2.70;;;;;;;;;;6250555;22;20079;-96
2024/03/15 02:20:25;;;;;;;21.92;3.15;;;;;;;;;;6250635;22;20331;-96
2024/03/15 02:22:50;;;;;;;31.33;4.03;;;;;;;;;;6250592;22;20027;-96
2024/03/15 02:25:16;;;;;;;24.90;3.35;;;;;;;;;;6250290;22;20031;-96
2024/03/15 02:27:41;;;;;;;17.30;2.88;;;;;;;;;;6250447;22;20080;-95
2024/03/15 02:30:07;;;;;;;19.00;3.03;;;;;;;;;;6250039;22;20006;-96
2024/03/15 02:32:32;;;;;;;22.33;3.17;;;;;;;;;;6250255;22;20000;-95
2024/03/15 02:34:58;;;;;;;27.00;4.55;;;;;;;;;;6250492;22;20014;-96
2024/03/15 02:37:23;;;;;;;23.63;4.90;;;;;;;;;;6250289;22;20051;-95
2024/03/15 02:39:51;;;;;;;27.50;4.03;;;;;;;;;;6249843;22;19995;-95
2024/03/15 02:42:16;;;;;;;20.13;3.22;;;;;;;;;;6249728;22;20011;-96
2024/03/15 02:44:41;;;;;;;27.23;4.18;;;;;;;;;;6249386;22;19992;-96
2024/03/15 02:47:07;;;;;;;28.45;3.78;;;;;;;;;;6250255;22;20002;-96
2024/03/15 02:49:32;;;;;;;18.73;3.03;;;;;;;;;;6250069;22;19996;-95
2024/03/15 02:51:57;;;;;;;24.45;4.03;;;;;;;;;;6249984;22;20018;-95
2024/03/15 02:54:26;;;;;;;20.60;3.45;;;;;;;;;;6250675;22;20083;-96
2024/03/15 02:56:51;;;;;;;24.17;3.88;;;;;;;;;;6250293;22;20019;-96
2024/03/15 02:59:19;;;;;;;18.40;3.35;;;;;;;;;;6250467;22;19996;-95
2024/03/15 03:01:46;;;;;;;20.92;3.65;;;;;;;;;;6250114;22;20141;-95
2024/03/15 03:04:11;;;;;;;20.90;2.58;;;;;;;;;;6250566;22;20002;-96
2024/03/15 03:06:36;;;;;;;21.45;3.30;;;;;;;;;;6250019;22;20082;-95
2024/03/15 03:09:02;;;;;;;17.05;3.50;;;;;;;;;;6249953;22;20000;-96
2024/03/15 03:11:27;;;;;;;26.20;4.10;;;;;;;;;;6250848;22;19996;-95
2024/03/15 03:13:53;;;;;;;27.88;4.15;;;;;;;;;;6250356;22;19999;-96
2024/03/15 03:16:20;;;;;;;25.20;3.08;;;;;;;;;;6250611;22;20039;-96
2024/03/15 03:18:45;;;;;;;17.98;3.00;;;;;;;;;;6250207;22;19995;-95
2024/03/15 03:21:11;;;;;;;18.20;3.03;;;;;;;;;;6250620;22;20446;-95
2024/03/15 03:23:37;;;;;;;22.23;2.95;;;;;;;;;;6250374;22;20373;-96
2024/03/15 03:26:03;;;;;;;27.27;3.53;;;;;;;;;;6250310;22;20010;-95
2024/03/15 03:28:28;;;;;;;23.27;3.85;;;;;;;;;;6250698;22;20052;-96
2024/03/15 03:30:54;;;;;;;19.90;3.53;;;;;;;;;;6250734;22;20086;-95
2024/03/15 03:33:19;;;;;;;22.48;4.05;;;;;;;;;;6250299;22;19992;-95
2024/03/15 03:35:44;;;;;;;24.05;3.13;;;;;;;;;;6250051;22;20071;-96
2024/03/15 03:38:09;;;;;;;24.08;4.03;;;;;;;;;;6250678;22;19992;-96
2024/03/15 03:40:35;;;;;;;29.35;4.10;;;;;;;;;;6250293;22;20004;-96
2024/03/15 03:43:03;;;;;;;28.92;3.65;;;;;;;;;;6250315;22;20019;-95
2024/03/15 03:45:29;;;;;;;32.65;3.55;;;;;;;;;;6250359;22;20158;-95
2024/03/15 03:47:55;;;;;;;28.50;3.88;;;;;;;;;;6249270;22;20135;-96
2024/03/15 03:50:21;;;;;;;20.13;2.92;;;;;;;;;;6250201;22;20018;-96
2024/03/15 03:52:46;;;;;;;25.23;3.78;;;;;;;;;;6251309;22;20004;-95
2024/03/15 03:55:13;;;;;;;28.17;5.43;;;;;;;;;;6251720;22;20423;-95
2024/03/15 03:57:40;;;;;;;33.72;3.97;;;;;;;;;;6251639;22;20003;-96
2024/03/15 04:00:14;;;;;;;25.15;3.80;;;;;;;;;;6252129;22;20078;-96
2024/03/15 04:02:46;;;;;;;23.33;3.70;;;;;;;;;;6251892;22;19996;-96
2024/03/15 04:05:15;;;;;;;21.98;2.85;;;;;;;;;;6252269;22;20362;-95
2024/03/15 04:07:41;;;;;;;23.40;3.33;;;;;;;;;;6251684;22;20057;-96
2024/03/15 04:10:07;;;;;;;25.60;3.25;;;;;;;;;;6252127;22;19999;-95
2024/03/15 04:12:32;;;;;;;28.48;3.70;;;;;;;;;;6251767;22;20027;-96
2024/03/15 04:14:59;;;;;;;23.17;3.53;;;;;;;;;;6252200;22;20114;-96
2024/03/15 04:17:25;;;;;;;29.25;5.82;;;;;;;;;;6251823;22;20000;-95
2024/03/15 04:19:51;;;;;;;23.10;3.15;;;;;;;;;;6251842;22;20069;-96
2024/03/15 04:22:16;;;;;;;22.45;3.72;;;;;;;;;;6251792;22;20031;-95
2024/03/15 04:24:43;;;;;;;25.83;4.90;;;;;;;;;;6251759;22;19991;-96
2024/03/15 04:27:08;;;;;;;32.80;4.25;;;;;;;;;;6251676;22;20022;-96
2024/03/15 04:29:37;;;;;;;21.35;4.13;;;;;;;;;;6251240;22;20478;-96
2024/03/15 04:32:02;;;;;;;22.27;3.92;;;;;;;;;;6251218;22;20434;-95
2024/03/15 04:34:28;;;;;;;22.65;4.05;;;;;;;;;;6251671;22;20000;-94
2024/03/15 04:36:53;;;;;;;25.50;3.50;;;;;;;;;;6250902;22;20069;-95
2024/03/15 04:39:19;;;;;;;29.60;3.90;;;;;;;;;;6251385;22;20338;-96
2024/03/15 04:41:44;;;;;;;31.80;4.75;;;;;;;;;;6250907;22;20038;-95
2024/03/15 04:44:09;;;;;;;27.02;5.85;;;;;;;;;;6250883;22;20045;-95
2024/03/15 04:46:35;;;;;;;28.88;3.83;;;;;;;;;;6251178;22;19999;-96
2024/03/15 04:49:00;;;;;;;22.42;3.40;;;;;;;;;;6250831;22;20007;-96
2024/03/15 04:51:25;;;;;;;30.70;4.70;;;;;;;;;;6251359;22;19999;-96
2024/03/15 04:53:51;;;;;;;30.98;5.07;;;;;;;;;;6250858;22;19999;-96
2024/03/15 04:56:16;;;;;;;31.40;5.38;;;;;;;;;;6250711;22;20027;-96
2024/03/15 04:58:41;;;;;;;34.33;4.15;;;;;;;;;;6251000;22;20079;-95
2024/03/15 05:01:07;;;;;;;41.42;5.68;;;;;;;;;;6251274;22;19996;-95
2024/03/15 05:03:32;;;;;;;26.45;3.80;;;;;;;;;;6250723;22;20003;-96
2024/03/15 05:05:57;;;;;;;19.88;3.33;;;;;;;;;;6250662;22;20430;-96
2024/03/15 05:08:23;;;;;;;36.63;6.80;;;;;;;;;;6250635;22;20019;-96
2024/03/15 05:10:48;;;;;;;27.83;4.72;;;;;;;;;;6276595;22;20008;-96
2024/03/15 05:13:13;;;;;;;24.40;3.88;;;;;;;;;;6251156;22;20002;-95
2024/03/15 05:15:39;;;;;;;42.15;7.30;;;;;;;;;;6251110;22;20004;-96
2024/03/15 05:18:04;;;;;;;27.13;4.32;;;;;;;;;;6251024;22;19999;-95
2024/03/15 05:20:30;;;;;;;31.20;4.50;;;;;;;;;;6251168;22;20035;-96
2024/03/15 05:22:56;;;;;;;29.58;4.30;;;;;;;;;;6250955;22;20026;-96
2024/03/15 05:25:21;;;;;;;21.67;4.30;;;;;;;;;;6250801;22;20050;-95
2024/03/15 05:27:46;;;;;;;32.60;5.95;;;;;;;;;;6250786;22;19995;-94
2024/03/15 05:30:12;;;;;;;40.42;6.88;;;;;;;;;;6250554;22;20091;-94
2024/03/15 05:32:37;;;;;;;33.92;4.93;;;;;;;;;;6250725;22;20023;-96
2024/03/15 05:35:03;;;;;;;27.65;4.05;;;;;;;;;;6251079;22;20004;-96
2024/03/15 05:37:29;;;;;;;29.48;6.35;;;;;;;;;;6250780;22;20003;-94
2024/03/15 05:39:54;;;;;;;35.70;4.40;;;;;;;;;;6250574;22;20064;-96
2024/03/15 05:42:19;;;;;;;34.20;5.35;;;;;;;;;;6250731;22;20090;-95
2024/03/15 05:44:48;;;;;;;28.98;3.70;;;;;;;;;;6250496;22;20110;-96
2024/03/15 05:47:16;;;;;;;30.73;4.55;;;;;;;;;;6250420;22;20027;-95
2024/03/15 05:49:41;;;;;;;33.80;5.00;;;;;;;;;;6250710;22;20070;-95
2024/03/15 05:52:10;;;;;;;20.95;3.90;;;;;;;;;;6250569;22;20011;-96
2024/03/15 05:54:36;;;;;;;31.42;4.38;;;;;;;;;;6250844;22;19996;-96
2024/03/15 05:57:01;;;;;;;30.25;3.28;;;;;;;;;;6250378;22;20027;-95
2024/03/15 05:59:26;;;;;;;20.50;3.67;;;;;;;;;;6250272;22;20031;-96
2024/03/15 06:01:52;;;;;;;20.30;2.72;;;;;;;;;;6250819;22;20091;-95
2024/03/15 06:04:17;;;;;;;19.23;3.08;;;;;;;;;;6250679;22;20003;-95
2024/03/15 06:06:42;;;;;;;24.05;4.82;;;;;;;;;;6250467;22;20083;-95
2024/03/15 06:09:09;;;;;;;19.30;4.07;;;;;;;;;;6250769;22;20470;-96
2024/03/15 06:11:37;;;;;;;20.17;3.15;;;;;;;;;;6250303;22;20007;-96
2024/03/15 06:14:03;;;;;;;17.20;2.72;;;;;;;;;;6250419;22;20086;-95
2024/03/15 06:16:28;;;;;;;25.58;3.70;;;;;;;;;;6249461;22;20040;-95
2024/03/15 06:18:54;;;;;;;16.02;3.40;;;;;;;;;;6250368;22;20057;-95
2024/03/15 06:21:19;;;;;;;15.50;3.03;;;;;;;;;;6250576;22;20023;-96
2024/03/15 06:23:44;;;;;;;13.48;2.72;;;;;;;;;;6250239;22;19999;-95
2024/03/15 06:26:10;;;;;;;18.77;3.65;;;;;;;;;;6250485;22;20074;-95
2024/03/15 06:28:36;;;;;;;23.50;2.88;;;;;;;;;;6250708;22;20414;-95
2024/03/15 06:31:02;;;;;;;10.73;1.77;;;;;;;;;;6249811;22;20079;-96
2024/03/15 06:33:31;;;;;;;18.10;3.10;;;;;;;;;;6250190;22;20021;-95
2024/03/15 06:36:00;;;;;;;13.48;1.90;;;;;;;;;;6250317;22;20035;-95
2024/03/15 06:38:40;;;;;;;11.82;1.45;;;;;;;;;;6250071;22;20002;-95
2024/03/15 06:41:13;;;;;;;11.50;1.83;;;;;;;;;;6250325;22;20033;-95
2024/03/15 06:43:42;;;;;;;14.38;2.75;;;;;;;;;;6250667;22;20046;-95
2024/03/15 06:46:08;;;;;;;11.25;1.42;;;;;;;;;;6250096;22;20003;-95
2024/03/15 06:48:44;;;;;;;9.13;2.30;;;;;;;;;;6249601;22;20334;-95
2024/03/15 06:53:53;;;;;;;7.60;1.23;;;;;;;;;;6277376;22;20007;-95
2024/03/15 06:56:18;;;;;;;9.98;1.23;;;;;;;;;;6249772;22;20000;-96
2024/03/15 06:58:43;;;;;;;10.82;1.33;;;;;;;;;;6249908;22;19992;-95
2024/03/15 07:01:08;;;;;;;3.85;0.75;;;;;;;;;;6249828;22;20048;-96
2024/03/15 07:03:34;;;;;;;2.80;0.75;;;;;;;;;;6249828;22;20303;-96
2024/03/15 07:05:59;;;;;;;4.35;0.75;;;;;;;;;;6249849;22;20088;-96
2024/03/15 07:08:24;;;;;;;4.60;0.88;;;;;;;;;;6249969;22;20034;-95
2024/03/15 07:10:50;;;;;;;5.30;0.77;;;;;;;;;;6249598;22;20007;-95
2024/03/15 07:13:16;;;;;;;2.63;0.77;;;;;;;;;;6250086;22;20029;-95
2024/03/15 07:15:41;;;;;;;8.05;1.20;;;;;;;;;;6249292;22;20095;-95
2024/03/15 07:18:08;;;;;;;4.88;1.10;;;;;;;;;;6251155;22;20003;-94
2024/03/15 07:20:36;;;;;;;7.13;1.15;;;;;;;;;;6250532;22;20082;-94
2024/03/15 07:23:05;;;;;;;9.00;1.27;;;;;;;;;;6251583;22;19999;-95
2024/03/15 07:25:30;;;;;;;6.03;0.77;;;;;;;;;;6251514;22;20050;-94
2024/03/15 07:27:57;;;;;;;8.93;1.55;;;;;;;;;;6251187;22;20334;-96
2024/03/15 07:30:22;;;;;;;6.63;1.52;;;;;;;;;;6252304;22;19995;-96
2024/03/15 07:32:47;;;;;;;9.77;1.45;;;;;;;;;;6251270;22;20347;-95
2024/03/15 07:35:13;;;;;;;8.20;2.15;;;;;;;;;;6254873;22;20004;-95
2024/03/15 07:37:38;;;;;;;7.55;1.33;;;;;;;;;;6257116;22;20008;-96
2024/03/15 07:40:08;;;;;;;7.13;2.05;;;;;;;;;;6254063;22;20307;-96
2024/03/15 07:42:34;;;;;;;5.53;1.30;;;;;;;;;;6257246;22;20006;-95
2024/03/15 07:44:59;;;;;;;12.30;1.20;;;;;;;;;;6259112;22;19996;-96
2024/03/15 07:47:26;;;;;;;14.30;1.98;;;;;;;;;;6257370;22;20000;-96
2024/03/15 07:49:54;;;;;;;6.60;1.30;;;;;;;;;;6227603;22;20026;-95
2024/03/15 07:52:19;;;;;;;6.95;1.10;;;;;;;;;;6253070;22;20016;-96
2024/03/15 07:54:45;;;;;;;10.48;2.35;;;;;;;;;;6248268;23;20003;-96
2024/03/15 07:57:10;;;;;;;9.13;2.17;;;;;;;;;;6272404;22;20564;-95
2024/03/15 07:59:40;;;;;;;11.20;1.65;;;;;;;;;;6278644;22;20484;-96
2024/03/15 08:02:05;;;;;;;7.07;1.50;;;;;;;;;;6278939;22;20026;-96
2024/03/15 08:04:33;;;;;;;9.38;1.13;;;;;;;;;;6279265;22;19992;-96
2024/03/15 08:06:59;;;;;;;9.38;1.50;;;;;;;;;;6279077;22;19999;-96
2024/03/15 08:09:24;;;;;;;5.65;1.20;;;;;;;;;;6279419;22;19995;-96
2024/03/15 08:11:53;;;;;;;11.05;1.90;;;;;;;;;;6280227;22;20030;-96
2024/03/15 08:14:18;;;;;;;11.23;1.65;;;;;;;;;;6280932;22;19996;-96
2024/03/15 08:16:44;;;;;;;11.07;1.40;;;;;;;;;;6279948;22;20022;-96
2024/03/15 08:19:10;;;;;;;8.18;1.13;;;;;;;;;;6279256;22;20006;-96
2024/03/15 08:21:38;;;;;;;17.05;1.75;;;;;;;;;;6278670;22;20004;-96
2024/03/15 08:24:04;;;;;;;18.25;2.63;;;;;;;;;;6278298;22;20002;-96
2024/03/15 08:26:39;;;;;;;11.48;2.22;;;;;;;;;;6280249;22;19996;-96
2024/03/15 08:29:05;;;;;;;14.80;2.03;;;;;;;;;;6281824;22;20055;-96
2024/03/15 08:31:36;;;;;;;11.70;2.25;;;;;;;;;;6277652;22;20024;-96
2024/03/15 08:34:05;;;;;;;16.75;2.70;;;;;;;;;;6284906;22;20000;-96
2024/03/15 08:36:36;;;;;;;15.02;2.92;;;;;;;;;;6281168;22;20073;-96
2024/03/15 08:39:03;;;;;;;14.60;3.88;;;;;;;;;;6280515;22;20034;-96
2024/03/15 08:41:28;;;;;;;18.48;2.97;;;;;;;;;;6279994;22;20091;-96
2024/03/15 08:43:57;;;;;;;11.60;2.22;;;;;;;;;;6286969;22;20011;-96
2024/03/15 08:46:23;;;;;;;17.15;2.72;;;;;;;;;;6294680;22;19996;-96
2024/03/15 08:48:50;;;;;;;21.30;3.50;;;;;;;;;;6284747;22;20517;-96
2024/03/15 08:51:16;;;;;;;11.02;2.78;;;;;;;;;;6283447;22;20006;-94
2024/03/15 08:53:42;;;;;;;21.85;3.38;;;;;;;;;;6275422;22;20007;-93
2024/03/15 08:56:07;;;;;;;11.77;2.28;;;;;;;;;;6275194;22;20011;-94
2024/03/15 08:58:32;;;;;;;21.73;2.72;;;;;;;;;;6275279;22;20053;-94
2024/03/15 09:00:58;;;;;;;13.55;2.45;;;;;;;;;;6278038;22;19999;-96
2024/03/15 09:03:26;;;;;;;18.98;3.65;;;;;;;;;;6275611;22;20036;-93
2024/03/15 09:05:51;;;;;;;20.13;2.60;;;;;;;;;;6275095;22;20336;-94
2024/03/15 09:08:17;;;;;;;23.83;2.20;;;;;;;;;;6277445;22;20067;-95
2024/03/15 09:10:42;;;;;;;19.10;3.72;;;;;;;;;;6276334;22;20000;-96
2024/03/15 09:13:09;;;;;;;16.25;3.03;;;;;;;;;;6276815;22;20007;-96
2024/03/15 09:15:35;;;;;;;18.77;3.00;;;;;;;;;;6275033;22;20014;-94
2024/03/15 09:18:00;;;;;;;21.40;3.08;;;;;;;;;;6275581;22;20003;-95
2024/03/15 09:22:57;;;;;;;22.95;2.78;;;;;;;;;;6278466;22;20003;-94
2024/03/15 09:25:23;;;;;;;19.45;3.65;;;;;;;;;;6276142;22;20002;-95
2024/03/15 09:27:52;;;;;;;21.75;3.67;;;;;;;;;;6276769;22;19999;-95
2024/03/15 09:30:18;;;;;;;26.35;3.95;;;;;;;;;;6277863;22;20034;-94
2024/03/15 09:32:44;;;;;;;22.75;4.45;;;;;;;;;;6279120;22;20344;-96
2024/03/15 09:35:12;;;;;;;17.58;3.83;;;;;;;;;;6275530;22;20423;-96
2024/03/15 09:37:46;;;;;;;20.42;3.53;;;;;;;;;;6274208;22;20371;-96
2024/03/15 09:40:12;;;;;;;19.25;3.17;;;;;;;;;;6273505;22;19996;-96
2024/03/15 09:42:37;;;;;;;19.50;3.30;;;;;;;;;;6274643;22;19996;-96
2024/03/15 09:45:02;;;;;;;13.30;2.80;;;;;;;;;;6273985;22;19996;-96
2024/03/15 09:47:28;;;;;;;20.77;3.30;;;;;;;;;;6274261;22;20076;-96
2024/03/15 09:49:53;;;;;;;25.08;3.88;;;;;;;;;;6274558;22;20027;-96
2024/03/15 09:52:19;;;;;;;16.25;3.17;;;;;;;;;;6274491;22;20510;-96
2024/03/15 09:54:44;;;;;;;27.38;4.10;;;;;;;;;;6275275;22;19999;-96
2024/03/15 09:57:11;;;;;;;31.67;5.35;;;;;;;;;;6274457;22;20115;-96
2024/03/15 09:59:37;;;;;;;25.67;4.57;;;;;;;;;;6274319;22;20002;-96
2024/03/15 10:02:07;;;;;;;21.60;3.92;;;;;;;;;;6277672;22;19996;-96
2024/03/15 10:04:33;;;;;;;21.75;3.28;;;;;;;;;;6278949;22;19995;-96
2024/03/15 10:06:58;;;;;;;25.92;3.47;;;;;;;;;;6278455;22;19976;-95
2024/03/15 10:09:24;;;;;;;17.98;3.70;;;;;;;;;;6275952;22;20078;-96
2024/03/15 10:11:49;;;;;;;22.35;3.85;;;;;;;;;;6279495;22;20015;-96
2024/03/15 10:14:14;;;;;;;19.98;3.72;;;;;;;;;;6279559;22;19996;-96
2024/03/15 10:16:40;;;;;;;17.33;3.15;;;;;;;;;;6286880;22;20018;-96
2024/03/15 10:19:10;;;;;;;18.85;3.35;;;;;;;;;;6284403;22;20021;-96
2024/03/15 10:21:36;;;;;;;22.10;3.95;;;;;;;;;;6282328;22;20007;-96
2024/03/15 10:24:01;;;;;;;24.27;4.95;;;;;;;;;;6277081;22;20003;-96
2024/03/15 10:26:26;;;;;;;17.73;3.97;;;;;;;;;;6278940;22;20003;-96
2024/03/15 10:28:55;;;;;;;25.58;4.07;;;;;;;;;;6282110;22;19999;-96
2024/03/15 10:31:21;;;;;;;19.50;4.13;;;;;;;;;;6251607;23;20003;-96
2024/03/15 10:33:46;;;;;;;16.67;3.42;;;;;;;;;;6251290;23;20000;-96
2024/03/15 10:36:12;;;;;;;20.48;4.13;;;;;;;;;;6248008;22;20012;-96
2024/03/15 10:38:40;;;;;;;17.45;3.17;;;;;;;;;;6258042;23;20004;-96
2024/03/15 10:41:06;;;;;;;19.02;2.95;;;;;;;;;;6251187;23;20570;-96
2024/03/15 10:43:31;;;;;;;21.02;3.10;;;;;;;;;;6254547;23;20330;-96
2024/03/15 10:45:57;;;;;;;17.35;2.65;;;;;;;;;;6246752;22;20007;-92
2024/03/15 10:48:23;;;;;;;20.90;4.22;;;;;;;;;;6242375;22;20080;-93
2024/03/15 10:50:49;;;;;;;16.00;3.53;;;;;;;;;;6240835;23;20004;-94
2024/03/15 10:53:15;;;;;;;15.02;2.63;;;;;;;;;;6239492;23;20074;-92
2024/03/15 10:55:42;;;;;;;19.17;3.30;;;;;;;;;;6241564;22;20007;-93
2024/03/15 10:58:08;;;;;;;19.17;4.13;;;;;;;;;;6242056;22;20000;-93
2024/03/15 11:00:33;;;;;;;14.82;3.25;;;;;;;;;;6241664;22;20419;-93
2024/03/15 11:03:11;;;;;;;20.42;3.10;;;;;;;;;;6241904;22;20358;-93
2024/03/15 11:05:36;;;;;;;21.48;3.08;;;;;;;;;;6240606;22;20086;-93
2024/03/15 11:08:09;;;;;;;24.75;4.35;;;;;;;;;;6240060;23;20038;-92
2024/03/15 11:10:37;;;;;;;21.10;3.60;;;;;;;;;;6239002;23;20335;-93
2024/03/15 11:13:07;;;;;;;26.83;4.22;;;;;;;;;;6240846;22;20004;-94
2024/03/15 11:15:33;;;;;;;30.45;5.25;;;;;;;;;;6239762;22;20004;-93
2024/03/15 11:18:08;;;;;;;22.98;3.97;;;;;;;;;;6239773;23;20148;-94
2024/03/15 11:20:46;;;;;;;27.70;5.05;;;;;;;;;;6239657;23;20075;-94
2024/03/15 11:23:13;;;;;;;22.70;3.60;;;;;;;;;;6241853;23;19996;-93
2024/03/15 11:25:38;;;;;;;20.55;4.32;;;;;;;;;;6239148;22;20454;-93
2024/03/15 11:28:04;;;;;;;19.35;3.55;;;;;;;;;;6239748;23;19997;-94
2024/03/15 11:30:29;;;;;;;20.65;2.95;;;;;;;;;;6240441;23;20003;-93
2024/03/15 11:32:55;;;;;;;21.40;3.58;;;;;;;;;;6240519;23;20059;-94
2024/03/15 11:35:21;;;;;;;10.90;1.70;;;;;;;;;;6240337;22;20316;-94
2024/03/15 11:37:46;;;;;;;13.23;2.63;;;;;;;;;;6240953;23;20043;-94
2024/03/15 11:40:12;;;;;;;19.02;3.00;;;;;;;;;;6240544;23;20000;-94
2024/03/15 11:42:37;;;;;;;14.43;2.83;;;;;;;;;;6240515;23;20453;-95
2024/03/15 11:45:02;;;;;;;15.40;2.57;;;;;;;;;;6240485;23;20000;-94
2024/03/15 11:47:27;;;;;;;16.23;3.05;;;;;;;;;;6239528;22;20540;-95
2024/03/15 11:49:54;;;;;;;13.20;2.72;;;;;;;;;;6239581;23;20030;-94
2024/03/15 11:52:19;;;;;;;15.95;2.70;;;;;;;;;;6240107;23;20004;-94
2024/03/15 11:54:44;;;;;;;9.90;2.17;;;;;;;;;;6240236;23;20000;-94
2024/03/15 11:57:10;;;;;;;17.20;2.33;;;;;;;;;;6241237;22;20328;-94
2024/03/15 11:59:36;;;;;;;15.70;1.98;;;;;;;;;;6240545;23;19996;-94
2024/03/15 12:02:01;;;;;;;17.20;2.40;;;;;;;;;;6239481;23;20427;-94
2024/03/15 12:04:26;;;;;;;17.73;2.53;;;;;;;;;;6240532;23;20000;-94
2024/03/15 12:06:53;;;;;;;14.25;2.45;;;;;;;;;;6239921;22;20312;-95
2024/03/15 12:09:18;;;;;;;9.82;1.67;;;;;;;;;;6240272;23;20091;-94
2024/03/15 12:11:43;;;;;;;7.43;1.02;;;;;;;;;;6239976;23;20062;-94
2024/03/15 12:14:12;;;;;;;4.33;0.93;;;;;;;;;;6243078;23;20015;-93
2024/03/15 12:16:40;;;;;;;10.32;0.90;;;;;;;;;;6241905;22;20253;-94
2024/03/15 12:19:08;;;;;;;5.75;1.00;;;;;;;;;;6241439;23;20366;-94
2024/03/15 12:21:37;;;;;;;4.15;0.88;;;;;;;;;;6242648;23;20027;-93
2024/03/15 12:24:02;;;;;;;5.53;0.70;;;;;;;;;;6242345;23;20067;-93
2024/03/15 12:26:27;;;;;;;6.30;0.70;;;;;;;;;;6242291;22;20430;-95
2024/03/15 12:28:53;;;;;;;6.70;1.60;;;;;;;;;;6243281;23;20078;-94
2024/03/15 12:31:18;;;;;;;5.27;0.70;;;;;;;;;;6244322;23;20233;-93
2024/03/15 12:33:43;;;;;;;7.82;0.90;;;;;;;;;;6245247;23;20237;-94
2024/03/15 12:36:09;;;;;;;5.70;1.07;;;;;;;;;;6245140;22;20008;-94
2024/03/15 12:38:34;;;;;;;2.60;0.50;;;;;;;;;;6250244;23;20221;-94
2024/03/15 12:40:59;;;;;;;4.03;0.50;;;;;;;;;;6245306;23;20256;-94
2024/03/15 12:43:25;;;;;;;6.57;0.67;;;;;;;;;;6245692;23;20023;-95
2024/03/15 12:45:50;;;;;;;8.18;1.33;;;;;;;;;;6246167;22;20545;-94
2024/03/15 12:48:16;;;;;;;9.03;1.37;;;;;;;;;;6246362;23;20000;-94
2024/03/15 12:50:42;;;;;;;3.38;0.73;;;;;;;;;;6247769;23;20229;-93
2024/03/15 12:53:11;;;;;;;7.07;1.27;;;;;;;;;;6257178;23;20054;-93
2024/03/15 12:55:37;;;;;;;8.38;1.85;;;;;;;;;;6250870;22;20023;-93
2024/03/15 12:58:02;;;;;;;6.18;0.77;;;;;;;;;;6249271;23;19992;-93
2024/03/15 13:00:30;;;;;;;7.15;0.90;;;;;;;;;;6250971;23;20008;-93
2024/03/15 13:02:55;;;;;;;5.72;1.20;;;;;;;;;;6250672;23;20021;-92
2024/03/15 13:05:21;;;;;;;11.30;1.53;;;;;;;;;;6255457;22;20071;-92
2024/03/15 13:07:48;;;;;;;9.70;1.55;;;;;;;;;;6249330;23;20253;-90
2024/03/15 13:10:14;;;;;;;7.38;1.40;;;;;;;;;;6248411;22;19999;-91
2024/03/15 13:12:40;;;;;;;9.82;2.03;;;;;;;;;;6248615;22;20075;-90
2024/03/15 13:15:15;;;;;;;9.15;1.08;;;;;;;;;;6247150;23;19996;-90
2024/03/15 13:17:40;;;;;;;15.57;2.08;;;;;;;;;;6246080;22;20000;-90
2024/03/15 13:20:06;;;;;;;13.70;1.63;;;;;;;;;;6240582;22;20411;-92
2024/03/15 13:22:31;;;;;;;14.10;1.95;;;;;;;;;;6242224;23;20434;-91
2024/03/15 13:24:56;;;;;;;10.52;1.67;;;;;;;;;;6241195;23;20075;-90
2024/03/15 13:27:22;;;;;;;12.27;1.55;;;;;;;;;;6241902;22;20027;-90
2024/03/15 13:29:47;;;;;;;8.98;1.60;;;;;;;;;;6241518;22;20378;-90
2024/03/15 13:32:15;;;;;;;15.65;2.35;;;;;;;;;;6242410;23;19993;-90
2024/03/15 13:34:44;;;;;;;15.57;2.53;;;;;;;;;;6242474;22;19999;-91
2024/03/15 13:37:09;;;;;;;15.70;1.95;;;;;;;;;;6242363;22;20335;-91
2024/03/15 13:39:36;;;;;;;14.37;2.33;;;;;;;;;;6239538;23;20008;-91
2024/03/15 13:42:01;;;;;;;14.40;2.50;;;;;;;;;;6242421;22;20226;-92
2024/03/15 13:44:29;;;;;;;17.70;2.55;;;;;;;;;;6242105;22;20420;-91
2024/03/15 13:46:57;;;;;;;14.02;2.85;;;;;;;;;;6242318;22;20427;-92
2024/03/15 13:49:22;;;;;;;22.25;3.15;;;;;;;;;;6241664;22;19996;-90
2024/03/15 13:51:48;;;;;;;18.67;2.90;;;;;;;;;;6241403;23;20011;-91
2024/03/15 13:54:13;;;;;;;20.67;3.60;;;;;;;;;;6242629;22;20301;-92
2024/03/15 13:56:39;;;;;;;20.85;3.35;;;;;;;;;;6242323;22;20335;-90
2024/03/15 13:59:07;;;;;;;20.60;3.97;;;;;;;;;;6242078;22;20000;-91
2024/03/15 14:01:32;;;;;;;17.30;2.78;;;;;;;;;;6242202;22;20054;-92
2024/03/15 14:04:00;;;;;;;17.42;3.85;;;;;;;;;;6243467;23;20000;-91
2024/03/15 14:06:32;;;;;;;16.02;2.10;;;;;;;;;;6243926;22;20035;-91
2024/03/15 14:08:57;;;;;;;18.92;2.78;;;;;;;;;;6243975;22;19999;-91
2024/03/15 14:11:23;;;;;;;13.18;2.10;;;;;;;;;;6241898;23;20083;-91
2024/03/15 14:13:48;;;;;;;12.75;2.28;;;;;;;;;;6241731;23;20004;-91
2024/03/15 14:16:16;;;;;;;11.48;2.20;;;;;;;;;;6243518;22;20419;-91
2024/03/15 14:18:42;;;;;;;12.88;2.75;;;;;;;;;;6242429;22;19996;-91
2024/03/15 14:21:07;;;;;;;20.58;3.28;;;;;;;;;;6242201;22;20134;-91
2024/03/15 14:23:32;;;;;;;14.53;2.70;;;;;;;;;;6242861;23;20418;-91
2024/03/15 14:25:57;;;;;;;10.77;2.00;;;;;;;;;;6242515;22;20249;-91
2024/03/15 14:28:23;;;;;;;11.02;2.58;;;;;;;;;;6242448;23;20305;-91
2024/03/15 14:30:49;;;;;;;20.10;2.80;;;;;;;;;;6240640;23;20023;-91